Time;durP1;ratioP1;P1;durP2;ratioP2;P2;SDS_P1;SDS_P2;PMS_P1;PMS_P2;Temp;Humidity;BMP_temperature;BMP_pressure;BME280_temperature;BME280_humidity;BME280_pressure;Samples;Min_cycle;Max_cycle;Signal;HPM_P1;HPM_P2
2022/06/05 00:01:50;;;;;;;9.77;8.90;;;23.70;63.20;;;;;;5029013;28;20241;-43
2022/06/05 00:04:28;;;;;;;8.13;7.43;;;23.80;62.90;;;;;;5030310;28;20682;-43
2022/06/05 00:07:29;;;;;;;8.53;7.83;;;24.00;62.30;;;;;;5029742;28;20464;-43
2022/06/05 00:10:11;;;;;;;8.80;8.10;;;24.00;61.80;;;;;;5013899;28;20527;-43
2022/06/05 00:12:45;;;;;;;7.90;7.20;;;24.20;61.30;;;;;;5028977;28;20431;-44
2022/06/05 00:15:11;;;;;;;9.23;8.53;;;24.30;60.90;;;;;;5030224;28;20478;-45
2022/06/05 00:17:37;;;;;;;8.13;7.43;;;24.10;61.20;;;;;;5029705;28;20420;-44
2022/06/05 00:20:05;;;;;;;8.30;7.60;;;24.20;60.80;;;;;;5029886;28;20193;-44
2022/06/05 00:22:30;;;;;;;8.23;7.67;;;24.20;60.60;;;;;;5027606;28;20494;-43
2022/06/05 00:24:56;;;;;;;8.07;7.43;;;24.10;60.80;;;;;;5030058;28;20515;-43
2022/06/05 00:27:24;;;;;;;7.80;7.10;;;23.90;61.20;;;;;;5029378;28;20227;-43
2022/06/05 00:29:50;;;;;;;7.90;7.27;;;23.70;62.20;;;;;;5029908;28;20195;-44
2022/06/05 00:32:30;;;;;;;8.77;7.97;;;23.90;61.90;;;;;;5029032;28;20432;-43
2022/06/05 00:34:55;;;;;;;8.43;7.63;;;23.90;61.70;;;;;;5029970;28;20224;-43
2022/06/05 00:37:45;;;;;;;7.93;7.33;;;23.70;61.90;;;;;;5029273;28;20514;-44
2022/06/05 00:40:29;;;;;;;8.43;7.73;;;23.70;62.20;;;;;;5029808;28;20197;-43
2022/06/05 00:42:56;;;;;;;8.67;7.87;;;23.70;61.80;;;;;;5028784;28;20488;-44
2022/06/05 00:45:22;;;;;;;7.93;7.23;;;23.70;62.00;;;;;;5029862;28;20553;-43
2022/06/05 00:47:48;;;;;;;9.37;8.57;;;23.60;62.40;;;;;;5029347;28;20432;-44
2022/06/05 00:50:17;;;;;;;7.27;6.67;;;23.50;63.10;;;;;;5028395;28;20426;-45
2022/06/05 00:52:46;;;;;;;8.47;7.87;;;23.50;63.40;;;;;;5028967;28;20205;-48
2022/06/05 00:55:13;;;;;;;8.33;7.53;;;23.60;62.70;;;;;;5029503;28;20833;-43
2022/06/05 00:57:39;;;;;;;8.20;7.50;;;23.40;62.80;;;;;;5023760;28;20427;-43
2022/06/05 01:00:20;;;;;;;9.10;8.20;;;23.20;63.80;;;;;;5030527;28;20468;-47
2022/06/05 01:02:49;;;;;;;8.07;7.47;;;23.30;63.90;;;;;;5032627;28;20692;-43
2022/06/05 01:05:15;;;;;;;8.47;7.87;;;23.00;64.90;;;;;;5033079;28;20428;-43
2022/06/05 01:07:41;;;;;;;8.63;7.77;;;22.90;65.40;;;;;;5032751;28;20432;-43
2022/06/05 01:10:10;;;;;;;8.53;7.83;;;22.90;65.40;;;;;;5033333;28;20951;-45
2022/06/05 01:13:03;;;;;;;8.53;7.83;;;23.10;64.50;;;;;;5032412;28;20427;-43
2022/06/05 01:15:36;;;;;;;8.23;7.47;;;23.40;63.70;;;;;;5031520;28;20521;-44
2022/06/05 01:18:26;;;;;;;8.13;7.53;;;23.70;62.60;;;;;;5033129;28;20431;-44
2022/06/05 01:21:03;;;;;;;8.53;7.67;;;23.90;61.90;;;;;;5032183;28;20432;-44
2022/06/05 01:23:41;;;;;;;8.37;7.57;;;24.00;61.10;;;;;;5032934;28;20515;-43
2022/06/05 01:26:19;;;;;;;7.83;7.33;;;24.10;60.70;;;;;;5032493;28;20428;-44
2022/06/05 01:28:56;;;;;;;8.27;7.57;;;24.20;60.40;;;;;;5032879;28;20435;-43
2022/06/05 01:31:36;;;;;;;7.60;7.00;;;24.20;60.20;;;;;;5031885;28;20432;-44
2022/06/05 01:34:08;;;;;;;8.00;7.20;;;24.30;60.20;;;;;;5032813;28;20809;-43
2022/06/05 01:36:45;;;;;;;8.47;7.80;;;24.30;60.00;;;;;;5032133;28;20466;-43
2022/06/05 01:39:38;;;;;;;8.87;8.17;;;24.30;59.90;;;;;;5032775;28;20470;-43
2022/06/05 01:42:08;;;;;;;8.50;7.90;;;24.30;59.90;;;;;;5025527;28;20875;-44
2022/06/05 01:44:42;;;;;;;8.37;7.67;;;24.40;59.90;;;;;;5032122;28;20813;-43
2022/06/05 01:47:14;;;;;;;9.00;8.40;;;24.40;60.00;;;;;;5032254;28;20435;-43
2022/06/05 01:49:46;;;;;;;8.83;8.23;;;24.40;60.10;;;;;;5032383;28;20434;-44
2022/06/05 01:52:14;;;;;;;8.33;7.70;;;24.30;60.00;;;;;;5031627;28;20428;-43
2022/06/05 01:54:50;;;;;;;8.33;7.73;;;24.30;60.40;;;;;;5032284;28;21252;-45
2022/06/05 01:57:19;;;;;;;9.20;8.03;;;24.20;60.40;;;;;;5031917;28;20977;-43
2022/06/05 01:59:52;;;;;;;9.50;8.70;;;24.20;60.30;;;;;;5032103;28;20501;-43
2022/06/05 02:02:26;;;;;;;9.63;8.83;;;24.20;60.50;;;;;;5031502;28;20480;-43
2022/06/05 02:05:00;;;;;;;12.23;9.50;;;24.20;60.90;;;;;;5032340;28;20486;-43
2022/06/05 02:07:35;;;;;;;9.43;8.60;;;24.20;60.80;;;;;;5031515;28;20427;-43
2022/06/05 02:10:21;;;;;;;9.13;8.33;;;24.10;60.90;;;;;;5030597;28;20860;-43
2022/06/05 02:12:48;;;;;;;9.63;8.83;;;24.10;61.00;;;;;;5031140;28;20448;-43
2022/06/05 02:15:13;;;;;;;8.90;8.30;;;24.20;61.00;;;;;;5032182;28;20511;-43
2022/06/05 02:17:39;;;;;;;9.23;8.33;;;24.10;60.80;;;;;;5031021;28;20519;-43
2022/06/05 02:20:08;;;;;;;10.30;9.23;;;24.10;61.10;;;;;;5032018;28;20200;-43
2022/06/05 02:22:38;;;;;;;9.50;8.70;;;24.10;61.00;;;;;;5031056;28;20483;-43
2022/06/05 02:25:05;;;;;;;9.87;8.97;;;24.20;61.20;;;;;;5031877;28;20561;-44
2022/06/05 02:27:31;;;;;;;9.40;8.60;;;24.10;61.10;;;;;;5031152;28;20459;-47
2022/06/05 02:29:58;;;;;;;9.70;9.00;;;24.10;61.30;;;;;;5031895;28;20462;-43
2022/06/05 02:32:31;;;;;;;9.60;8.80;;;24.10;61.30;;;;;;5030990;28;20605;-43
2022/06/05 02:35:10;;;;;;;10.13;9.23;;;24.10;61.60;;;;;;5031841;28;20515;-46
2022/06/05 02:37:56;;;;;;;10.83;9.77;;;24.00;61.50;;;;;;5029375;28;20797;-45
2022/06/05 02:40:40;;;;;;;10.30;9.60;;;24.10;61.60;;;;;;5031449;28;20474;-45
2022/06/05 02:43:30;;;;;;;9.00;8.40;;;24.10;61.30;;;;;;5031500;28;20480;-43
2022/06/05 02:46:21;;;;;;;10.00;9.20;;;24.10;61.40;;;;;;5031066;28;20439;-44
2022/06/05 02:49:09;;;;;;;9.50;8.70;;;24.00;61.40;;;;;;5026301;28;20498;-47
2022/06/05 02:51:40;;;;;;;9.53;8.73;;;24.00;61.60;;;;;;5030698;28;20542;-47
2022/06/05 02:54:06;;;;;;;9.47;8.67;;;24.00;61.80;;;;;;5031499;28;20429;-43
2022/06/05 02:56:32;;;;;;;10.47;9.47;;;23.90;61.70;;;;;;5030588;28;20997;-47
2022/06/05 02:59:01;;;;;;;9.03;8.30;;;23.90;62.10;;;;;;5031276;28;20217;-43
2022/06/05 03:04:11;;;;;;;8.70;8.00;;;23.90;62.40;;;;;;5029710;28;20431;-43
2022/06/05 03:06:39;;;;;;;9.90;9.10;;;23.90;62.20;;;;;;5030406;28;20427;-45
2022/06/05 03:09:06;;;;;;;9.73;8.90;;;23.90;62.20;;;;;;5030973;28;20197;-47
2022/06/05 03:11:32;;;;;;;9.43;8.50;;;23.90;62.40;;;;;;5030218;28;20990;-45
2022/06/05 03:13:57;;;;;;;9.87;9.07;;;23.70;62.90;;;;;;5029738;28;20443;-43
2022/06/05 03:16:24;;;;;;;9.80;9.10;;;23.70;63.20;;;;;;5030316;28;20189;-44
2022/06/05 03:18:50;;;;;;;9.47;8.77;;;23.70;63.10;;;;;;5030844;28;20189;-45
2022/06/05 03:21:16;;;;;;;10.63;9.27;;;23.70;62.90;;;;;;5030301;28;20419;-44
2022/06/05 03:23:41;;;;;;;10.27;9.20;;;23.80;62.80;;;;;;5030055;28;20197;-45
2022/06/05 03:26:11;;;;;;;11.33;10.43;;;23.70;62.60;;;;;;5030099;28;20208;-44
2022/06/05 03:28:38;;;;;;;9.90;9.00;;;23.80;62.70;;;;;;5030819;28;20197;-46
2022/06/05 03:31:08;;;;;;;10.17;9.37;;;23.70;62.70;;;;;;5028494;28;20522;-45
2022/06/05 03:33:36;;;;;;;10.50;9.50;;;23.70;63.00;;;;;;5030442;28;20911;-46
2022/06/05 03:36:17;;;;;;;9.50;8.70;;;23.60;63.00;;;;;;5030217;28;20462;-43
2022/06/05 03:38:43;;;;;;;10.10;9.30;;;23.60;63.10;;;;;;5030511;28;20485;-46
2022/06/05 03:41:08;;;;;;;10.30;9.30;;;23.60;63.00;;;;;;5029649;28;20436;-44
2022/06/05 03:43:37;;;;;;;9.93;9.13;;;23.50;63.30;;;;;;5030406;28;20664;-44
2022/06/05 03:46:11;;;;;;;10.17;9.37;;;23.50;63.90;;;;;;5029857;28;20225;-44
2022/06/05 03:48:37;;;;;;;9.43;8.73;;;23.50;63.80;;;;;;5030353;28;20448;-47
2022/06/05 03:51:06;;;;;;;10.13;9.37;;;23.50;64.80;;;;;;5029544;28;20832;-43
2022/06/05 03:53:32;;;;;;;10.73;9.13;;;23.50;64.00;;;;;;5036638;28;21060;-44
2022/06/05 03:55:57;;;;;;;9.87;9.10;;;23.60;63.80;;;;;;5033405;28;20458;-44
2022/06/05 03:58:23;;;;;;;9.90;9.00;;;23.50;63.90;;;;;;5028385;28;20649;-47
2022/06/05 04:00:51;;;;;;;9.40;8.70;;;23.50;64.20;;;;;;5029125;28;20248;-44
2022/06/05 04:03:17;;;;;;;11.07;10.17;;;23.40;64.10;;;;;;5030531;28;20221;-43
2022/06/05 04:05:44;;;;;;;10.27;9.30;;;23.50;64.00;;;;;;5029628;28;20772;-44
2022/06/05 04:08:10;;;;;;;9.47;8.70;;;23.60;63.70;;;;;;5030078;28;20232;-44
2022/06/05 04:10:37;;;;;;;10.50;9.70;;;23.60;63.30;;;;;;5029495;28;20825;-44
2022/06/05 04:13:03;;;;;;;9.47;8.77;;;23.60;63.50;;;;;;5030100;28;20201;-43
2022/06/05 04:15:28;;;;;;;10.07;9.27;;;23.60;63.70;;;;;;5030117;28;20785;-47
2022/06/05 04:17:54;;;;;;;10.40;9.40;;;23.60;64.10;;;;;;5029507;28;20193;-45
2022/06/05 04:20:19;;;;;;;10.13;9.33;;;23.60;64.40;;;;;;5030233;28;20189;-44
2022/06/05 04:22:45;;;;;;;10.33;9.43;;;23.60;64.80;;;;;;5029202;28;20232;-43
2022/06/05 04:25:13;;;;;;;11.20;10.07;;;23.50;65.20;;;;;;5028489;28;20207;-44
2022/06/05 04:27:39;;;;;;;10.30;9.30;;;23.60;65.40;;;;;;5029548;28;20201;-43
2022/06/05 04:30:06;;;;;;;10.30;9.50;;;23.60;66.00;;;;;;5029754;28;20428;-43
2022/06/05 04:32:31;;;;;;;12.00;10.83;;;23.60;66.30;;;;;;5029075;28;20219;-44
2022/06/05 04:34:57;;;;;;;10.60;9.70;;;23.60;66.10;;;;;;5032310;28;20420;-44
2022/06/05 04:37:22;;;;;;;12.07;11.07;;;23.60;66.10;;;;;;5033163;28;20265;-44
2022/06/05 04:39:48;;;;;;;11.80;10.73;;;23.60;66.70;;;;;;5034192;28;20189;-47
2022/06/05 04:42:14;;;;;;;10.90;10.10;;;23.70;66.30;;;;;;5032898;28;20315;-44
2022/06/05 04:44:40;;;;;;;11.30;10.30;;;23.60;66.30;;;;;;5033957;28;20684;-43
2022/06/05 04:47:05;;;;;;;11.73;10.70;;;23.70;66.30;;;;;;5033051;28;20197;-43
2022/06/05 04:49:31;;;;;;;11.87;10.77;;;23.70;66.20;;;;;;5033804;28;20189;-43
2022/06/05 04:51:56;;;;;;;12.83;11.70;;;23.70;66.30;;;;;;5031321;28;20308;-43
2022/06/05 04:54:22;;;;;;;11.90;10.90;;;23.80;66.60;;;;;;5033463;28;20226;-43
2022/06/05 04:56:48;;;;;;;10.83;10.00;;;23.80;66.50;;;;;;5033182;28;20193;-44
2022/06/05 04:59:14;;;;;;;12.70;11.70;;;23.80;66.50;;;;;;5033549;28;20219;-43
2022/06/05 05:01:40;;;;;;;12.20;11.20;;;23.80;66.80;;;;;;5032576;28;20234;-46
2022/06/05 05:04:14;;;;;;;12.10;11.07;;;23.70;67.00;;;;;;5033115;28;20428;-43
2022/06/05 05:06:43;;;;;;;12.47;11.47;;;23.70;67.40;;;;;;5033036;28;20440;-43
2022/06/05 05:09:08;;;;;;;12.50;11.60;;;23.70;67.40;;;;;;5033565;28;20412;-44
2022/06/05 05:11:35;;;;;;;12.70;11.60;;;23.70;67.40;;;;;;5032361;28;20446;-43
2022/06/05 05:14:00;;;;;;;12.63;11.43;;;23.70;67.50;;;;;;5033279;28;20197;-46
2022/06/05 05:16:28;;;;;;;13.77;12.57;;;23.60;67.60;;;;;;5032642;28;20431;-44
2022/06/05 05:18:55;;;;;;;12.87;11.70;;;23.60;67.90;;;;;;5031879;28;20197;-45
2022/06/05 05:21:22;;;;;;;13.43;12.20;;;23.50;68.80;;;;;;5032003;28;20432;-43
2022/06/05 05:23:49;;;;;;;13.80;12.70;;;23.30;69.10;;;;;;5033408;28;20434;-43
2022/06/05 05:26:21;;;;;;;13.33;12.03;;;23.20;69.70;;;;;;5032609;28;20493;-43
2022/06/05 05:28:48;;;;;;;15.10;13.93;;;23.00;70.70;;;;;;5033079;28;20436;-43
2022/06/05 05:31:18;;;;;;;13.43;12.23;;;23.00;71.20;;;;;;5032168;28;20447;-43
2022/06/05 05:33:44;;;;;;;15.30;14.00;;;22.90;71.90;;;;;;5032710;28;20506;-43
2022/06/05 05:36:10;;;;;;;13.67;12.60;;;22.80;72.80;;;;;;5031251;28;21093;-44
2022/06/05 05:38:37;;;;;;;14.67;13.37;;;22.70;73.00;;;;;;5032768;28;20803;-42
2022/06/05 05:43:47;;;;;;;15.20;13.90;;;22.80;73.10;;;;;;5033159;28;20490;-42
2022/06/05 05:46:14;;;;;;;14.40;13.10;;;22.80;73.10;;;;;;5029690;28;20424;-43
2022/06/05 05:48:40;;;;;;;16.10;14.77;;;22.70;73.30;;;;;;5032673;28;20197;-42
2022/06/05 05:51:13;;;;;;;15.23;13.77;;;22.70;73.70;;;;;;5031422;28;20428;-44
2022/06/05 05:53:40;;;;;;;14.53;13.20;;;22.70;73.60;;;;;;5032588;28;20185;-44
2022/06/05 05:56:10;;;;;;;13.80;12.70;;;22.80;73.40;;;;;;5031843;28;20428;-43
2022/06/05 05:58:38;;;;;;;15.07;13.70;;;22.80;72.90;;;;;;5032397;28;20451;-45
2022/06/05 06:01:07;;;;;;;15.43;14.10;;;22.90;72.70;;;;;;5030970;28;20463;-44
2022/06/05 06:03:33;;;;;;;13.97;12.77;;;22.80;72.30;;;;;;5032290;28;20491;-43
2022/06/05 06:06:00;;;;;;;16.00;14.73;;;22.60;73.00;;;;;;5031746;28;20436;-44
2022/06/05 06:08:26;;;;;;;15.97;14.47;;;22.40;73.90;;;;;;5032350;28;20416;-43
2022/06/05 06:10:52;;;;;;;17.00;15.40;;;22.20;75.80;;;;;;5030995;28;21267;-44
2022/06/05 06:13:18;;;;;;;17.10;15.50;;;22.00;77.90;;;;;;5030989;28;20505;-43
2022/06/05 06:15:44;;;;;;;16.10;14.50;;;21.80;78.50;;;;;;5031434;28;20959;-43
2022/06/05 06:18:09;;;;;;;15.43;14.13;;;22.00;78.70;;;;;;5032099;28;20204;-43
2022/06/05 06:20:35;;;;;;;13.90;12.77;;;22.20;77.40;;;;;;5031339;28;20208;-43
2022/06/05 06:23:01;;;;;;;19.23;14.60;;;22.30;77.10;;;;;;5031696;28;20680;-44
2022/06/05 06:25:26;;;;;;;16.07;14.63;;;21.80;79.10;;;;;;5031898;28;20181;-43
2022/06/05 06:27:52;;;;;;;16.03;14.00;;;21.40;81.90;;;;;;5031424;28;20570;-43
2022/06/05 06:30:18;;;;;;;15.53;14.17;;;20.90;86.10;;;;;;5031806;28;20198;-43
2022/06/05 06:32:43;;;;;;;15.60;14.30;;;20.50;90.10;;;;;;5031315;28;20284;-44
2022/06/05 06:35:09;;;;;;;14.57;13.37;;;20.30;91.40;;;;;;5031801;28;20190;-47
2022/06/05 06:37:35;;;;;;;13.43;12.40;;;20.10;91.90;;;;;;5031248;28;20189;-43
2022/06/05 06:40:00;;;;;;;14.63;13.43;;;20.20;92.30;;;;;;5030108;28;20263;-44
2022/06/05 06:42:26;;;;;;;13.23;12.10;;;20.40;92.10;;;;;;5030697;28;20252;-43
2022/06/05 06:44:52;;;;;;;14.10;12.83;;;20.60;91.30;;;;;;5031448;28;20668;-44
2022/06/05 06:47:18;;;;;;;12.13;11.13;;;20.60;90.70;;;;;;5031059;28;20223;-43
2022/06/05 06:49:43;;;;;;;10.87;9.93;;;20.10;92.50;;;;;;5031326;28;20194;-43
2022/06/05 06:52:09;;;;;;;11.30;10.37;;;19.60;95.40;;;;;;5030340;28;20189;-43
2022/06/05 06:54:34;;;;;;;13.40;10.97;;;19.60;96.60;;;;;;5031118;28;20644;-43
2022/06/05 06:57:00;;;;;;;11.17;10.27;;;19.50;97.10;;;;;;5030914;28;20189;-45
2022/06/05 06:59:27;;;;;;;11.33;10.43;;;19.40;98.60;;;;;;5031138;28;20557;-43
2022/06/05 07:01:53;;;;;;;10.30;9.40;;;19.40;99.50;;;;;;5030019;28;20248;-44
2022/06/05 07:04:19;;;;;;;9.60;8.90;;;19.60;99.00;;;;;;5031015;28;20420;-43
2022/06/05 07:06:44;;;;;;;11.17;10.27;;;19.60;98.70;;;;;;5029012;28;20647;-45
2022/06/05 07:09:13;;;;;;;11.13;10.13;;;19.70;98.20;;;;;;5031028;28;20204;-43
2022/06/05 07:11:39;;;;;;;11.60;10.47;;;19.50;98.90;;;;;;5030076;28;20250;-44
2022/06/05 07:14:05;;;;;;;13.33;12.13;;;19.50;99.50;;;;;;5030514;28;20503;-44
2022/06/05 07:16:30;;;;;;;13.23;11.97;;;19.50;99.60;;;;;;5030312;28;20269;-44
2022/06/05 07:18:56;;;;;;;13.37;12.23;;;19.50;99.70;;;;;;5030715;28;20243;-43
2022/06/05 07:21:23;;;;;;;12.87;11.70;;;19.30;99.90;;;;;;5029703;28;20197;-44
2022/06/05 07:23:49;;;;;;;13.70;12.40;;;19.10;99.90;;;;;;5030851;28;20193;-44
2022/06/05 07:26:18;;;;;;;14.87;13.67;;;19.10;99.90;;;;;;5030271;28;20424;-44
2022/06/05 07:28:43;;;;;;;14.50;13.37;;;19.10;99.90;;;;;;5047084;28;20415;-44
2022/06/05 07:31:11;;;;;;;15.33;14.03;;;19.00;99.90;;;;;;5049667;28;20478;-43
2022/06/05 07:33:41;;;;;;;15.70;14.30;;;18.90;99.90;;;;;;5049010;28;20257;-45
2022/06/05 07:36:09;;;;;;;15.07;13.77;;;18.70;99.90;;;;;;5050005;28;20435;-43
2022/06/05 07:38:35;;;;;;;14.87;13.10;;;18.60;99.90;;;;;;5050385;28;20459;-43
2022/06/05 07:41:01;;;;;;;14.80;13.47;;;18.50;99.90;;;;;;5049509;28;20945;-43
2022/06/05 07:43:27;;;;;;;14.93;13.70;;;18.60;99.90;;;;;;5050522;28;20515;-43
2022/06/05 07:45:53;;;;;;;10.80;9.90;;;18.70;99.90;;;;;;5049878;28;20614;-43
2022/06/05 07:48:19;;;;;;;6.90;6.20;;;18.90;99.90;;;;;;5050603;28;20192;-44
2022/06/05 07:56:14;;;;;;;6.13;5.53;;;20.00;91.60;;;;;;5031142;28;20518;-43
2022/06/05 07:58:41;;;;;;;4.70;4.40;;;20.10;92.40;;;;;;5030294;28;20507;-45
2022/06/05 08:01:07;;;;;;;6.53;6.00;;;20.20;91.10;;;;;;5027752;28;20608;-43
2022/06/05 08:03:35;;;;;;;6.80;6.30;;;20.20;92.10;;;;;;5030231;28;20479;-43
2022/06/05 08:06:00;;;;;;;7.20;5.50;;;20.00;93.60;;;;;;5029581;28;20296;-43
2022/06/05 08:08:26;;;;;;;6.67;6.00;;;19.90;94.80;;;;;;5029856;28;20424;-43
2022/06/05 08:10:51;;;;;;;6.50;5.90;;;20.00;93.80;;;;;;5029071;28;20201;-43
2022/06/05 08:13:17;;;;;;;5.80;5.30;;;20.30;93.30;;;;;;5030483;28;20296;-43
2022/06/05 08:15:44;;;;;;;5.80;4.77;;;20.70;90.30;;;;;;5028114;28;20201;-43
2022/06/05 08:18:10;;;;;;;4.90;4.40;;;21.00;88.10;;;;;;5029899;28;20919;-43
2022/06/05 08:20:36;;;;;;;4.83;4.43;;;21.20;85.90;;;;;;5029261;28;20848;-43
2022/06/05 08:23:02;;;;;;;4.37;3.97;;;21.10;85.30;;;;;;5029595;28;20483;-44
2022/06/05 08:25:28;;;;;;;4.30;4.00;;;21.20;82.90;;;;;;5029969;28;20280;-43
2022/06/05 08:27:54;;;;;;;4.83;4.40;;;21.40;82.80;;;;;;5028160;28;20503;-44
2022/06/05 08:30:19;;;;;;;6.83;5.13;;;21.60;82.70;;;;;;5029663;28;20193;-43
2022/06/05 08:32:45;;;;;;;7.50;4.20;;;21.80;82.40;;;;;;5029579;28;20428;-43
2022/06/05 08:35:11;;;;;;;4.30;4.00;;;22.10;82.00;;;;;;5029888;28;21340;-43
2022/06/05 08:43:23;;;;;;;3.40;3.10;;;22.40;80.00;;;;;;5029752;28;20497;-44
2022/06/05 08:46:10;;;;;;;6.03;3.53;;;22.40;82.50;;;;;;5029098;28;20432;-43
2022/06/05 08:48:47;;;;;;;3.47;2.83;;;22.50;85.20;;;;;;5029842;28;20432;-44
2022/06/05 08:51:47;;;;;;;3.23;2.97;;;22.50;84.40;;;;;;5028923;28;20506;-43
2022/06/05 08:54:21;;;;;;;3.50;2.60;;;22.60;85.20;;;;;;5027806;28;20927;-43
2022/06/05 08:56:54;;;;;;;4.40;2.90;;;22.60;84.40;;;;;;5022016;28;20811;-43
2022/06/05 08:59:30;;;;;;;4.13;2.83;;;22.90;84.20;;;;;;5029662;28;20459;-44
2022/06/05 09:02:24;;;;;;;3.37;3.17;;;22.70;83.20;;;;;;5028535;28;20495;-43
2022/06/05 09:04:59;;;;;;;3.60;3.30;;;22.40;85.90;;;;;;5023837;28;20565;-44
2022/06/05 09:08:08;;;;;;;4.33;3.10;;;22.60;83.90;;;;;;5028954;28;20772;-43
2022/06/05 09:10:42;;;;;;;2.57;2.47;;;22.50;82.80;;;;;;5023903;28;20466;-44
2022/06/05 09:13:16;;;;;;;3.40;3.10;;;22.50;83.70;;;;;;5029586;28;21009;-43
2022/06/05 09:16:19;;;;;;;3.30;3.00;;;22.50;82.30;;;;;;5028743;28;20482;-43
2022/06/05 09:18:46;;;;;;;3.20;3.00;;;22.50;82.60;;;;;;5029057;28;20550;-43
2022/06/05 09:21:24;;;;;;;3.43;3.23;;;22.50;84.30;;;;;;5028329;28;20435;-48
2022/06/05 09:24:19;;;;;;;3.80;3.43;;;22.50;84.30;;;;;;5033265;28;20448;-47
2022/06/05 09:26:48;;;;;;;3.30;3.00;;;22.60;81.90;;;;;;5027567;28;20467;-44
2022/06/05 09:29:43;;;;;;;4.03;3.60;;;22.50;80.00;;;;;;5032905;28;20759;-44
2022/06/05 09:32:39;;;;;;;3.80;3.00;;;22.20;80.00;;;;;;5032105;28;21122;-44
2022/06/05 09:35:11;;;;;;;4.20;3.07;;;22.20;81.90;;;;;;5033061;28;20428;-44
2022/06/05 09:37:57;;;;;;;3.50;3.00;;;22.30;80.60;;;;;;5032061;28;20428;-46
2022/06/05 09:40:51;;;;;;;3.20;2.93;;;22.60;80.50;;;;;;5032427;28;20844;-44
2022/06/05 09:43:45;;;;;;;3.13;2.83;;;22.90;78.40;;;;;;5027736;28;20523;-43
2022/06/05 09:46:14;;;;;;;3.30;3.00;;;23.00;77.60;;;;;;5032397;28;20436;-47
2022/06/05 09:48:47;;;;;;;4.70;3.00;;;23.10;75.90;;;;;;5031056;28;20498;-43
2022/06/05 09:51:15;;;;;;;4.33;3.07;;;23.20;76.00;;;;;;5031476;28;20439;-45
2022/06/05 09:54:11;;;;;;;3.10;2.77;;;23.50;76.40;;;;;;5032741;28;20438;-48
2022/06/05 09:58:24;;;;;;;2.90;2.70;;;23.70;76.00;;;;;;5029867;28;20952;-47
2022/06/05 09:59:34;;;;;;;2.47;2.27;;;24.00;75.80;;;;;;5032019;28;20436;-44
2022/06/05 10:02:02;;;;;;;3.60;2.20;;;24.00;73.40;;;;;;5031313;28;20507;-44
2022/06/05 10:04:31;;;;;;;4.03;2.20;;;23.90;73.50;;;;;;5032254;28;20436;-44
2022/06/05 10:07:06;;;;;;;2.10;2.00;;;23.70;73.20;;;;;;5032063;28;20424;-43
2022/06/05 10:09:34;;;;;;;4.80;1.77;;;23.90;72.20;;;;;;5032090;28;20436;-43
2022/06/05 10:12:00;;;;;;;1.87;1.77;;;24.20;71.60;;;;;;5031432;28;20523;-45
2022/06/05 10:14:28;;;;;;;2.33;2.13;;;24.30;70.60;;;;;;5030894;28;21058;-43
2022/06/05 10:17:23;;;;;;;2.53;2.33;;;24.30;70.60;;;;;;5031696;28;20193;-43
2022/06/05 10:20:12;;;;;;;1.87;1.77;;;24.40;70.40;;;;;;5032185;28;20903;-44
2022/06/05 10:22:59;;;;;;;2.93;1.93;;;24.60;68.60;;;;;;5031556;28;20515;-43
2022/06/05 10:25:37;;;;;;;2.10;2.00;;;24.50;69.90;;;;;;5032227;28;20442;-45
2022/06/05 10:28:05;;;;;;;2.13;1.93;;;24.60;69.80;;;;;;5031896;28;20574;-44
2022/06/05 10:30:38;;;;;;;2.57;2.20;;;24.80;70.70;;;;;;5031857;28;20512;-43
2022/06/05 10:33:17;;;;;;;4.43;2.00;;;24.90;69.70;;;;;;5031624;28;20431;-44
2022/06/05 10:36:06;;;;;;;2.00;1.80;;;25.10;69.10;;;;;;5031143;28;20513;-43
2022/06/05 10:38:40;;;;;;;3.30;2.27;;;25.00;68.40;;;;;;5026386;28;20440;-47
2022/06/05 10:41:17;;;;;;;3.73;2.57;;;25.10;68.60;;;;;;5029262;28;20440;-44
2022/06/05 10:43:48;;;;;;;2.20;2.00;;;25.00;69.10;;;;;;5031649;28;20526;-44
2022/06/05 10:46:27;;;;;;;2.23;1.80;;;25.10;69.50;;;;;;5030922;28;20420;-44
2022/06/05 10:48:55;;;;;;;3.60;1.83;;;24.90;70.40;;;;;;5031585;28;20424;-48
2022/06/05 10:51:39;;;;;;;9.40;2.13;;;24.80;70.20;;;;;;5030476;28;20447;-45
2022/06/05 10:54:35;;;;;;;3.13;1.80;;;24.80;71.20;;;;;;5031394;28;20519;-47
2022/06/05 10:57:41;;;;;;;5.00;2.33;;;24.50;72.60;;;;;;5025415;28;20528;-47
2022/06/05 11:00:18;;;;;;;3.50;3.00;;;24.50;73.70;;;;;;5016507;28;20491;-44
2022/06/05 11:03:14;;;;;;;4.23;2.70;;;24.30;75.20;;;;;;5027921;28;20559;-43
2022/06/05 11:05:52;;;;;;;3.70;2.47;;;23.90;76.20;;;;;;5030070;28;21285;-44
2022/06/05 11:08:39;;;;;;;4.00;2.90;;;23.60;80.30;;;;;;5029610;28;20951;-44
2022/06/05 11:14:08;;;;;;;3.43;2.33;;;23.50;82.60;;;;;;5031270;28;20446;-44
2022/06/05 11:16:59;;;;;;;5.23;3.17;;;23.70;80.60;;;;;;5030685;28;20792;-46
2022/06/05 11:19:46;;;;;;;7.27;3.73;;;23.30;81.40;;;;;;5031010;28;20974;-43
2022/06/05 11:22:15;;;;;;;9.10;3.03;;;23.20;83.10;;;;;;5030109;28;20866;-43
2022/06/05 11:24:50;;;;;;;4.47;3.00;;;23.10;83.90;;;;;;5030933;28;20432;-45
2022/06/05 11:27:26;;;;;;;3.20;2.60;;;23.00;85.80;;;;;;5030344;28;20848;-44
2022/06/05 11:30:18;;;;;;;4.27;2.90;;;22.80;87.00;;;;;;5030154;28;20455;-44
2022/06/05 11:32:49;;;;;;;5.17;2.83;;;22.80;87.40;;;;;;5028846;28;20444;-43
2022/06/05 11:35:24;;;;;;;4.23;3.47;;;22.40;90.30;;;;;;5029042;28;20428;-44
2022/06/05 11:38:23;;;;;;;4.00;3.60;;;22.30;90.80;;;;;;5030447;28;20505;-43
2022/06/05 11:41:00;;;;;;;3.33;3.03;;;22.40;91.40;;;;;;5029692;28;20913;-43
2022/06/05 11:43:30;;;;;;;2.83;2.30;;;22.70;90.00;;;;;;5029881;28;20618;-43
2022/06/05 11:46:25;;;;;;;3.00;2.70;;;23.00;88.20;;;;;;5030407;28;20995;-46
2022/06/05 11:48:56;;;;;;;3.87;2.50;;;23.10;87.20;;;;;;5027972;28;20440;-44
2022/06/05 11:51:53;;;;;;;4.07;2.63;;;23.50;84.00;;;;;;5028138;28;20479;-45
2022/06/05 11:55:06;;;;;;;2.23;2.10;;;23.70;81.80;;;;;;5024583;28;20519;-43
2022/06/05 11:57:41;;;;;;;4.60;3.10;;;23.90;79.70;;;;;;5017303;28;20931;-43
2022/06/05 12:00:28;;;;;;;3.30;3.00;;;24.10;79.80;;;;;;5029837;28;21017;-44
2022/06/05 12:03:16;;;;;;;4.67;2.70;;;24.40;79.80;;;;;;5027889;28;20488;-43
2022/06/05 12:06:01;;;;;;;5.40;3.60;;;24.30;78.60;;;;;;5029638;28;20989;-47
2022/06/05 12:08:42;;;;;;;3.27;2.97;;;24.50;81.50;;;;;;5030118;28;20435;-44
2022/06/05 12:11:23;;;;;;;3.00;2.80;;;24.60;79.90;;;;;;5028902;28;20440;-45
2022/06/05 12:13:58;;;;;;;4.40;2.90;;;24.80;79.00;;;;;;5030459;28;20790;-43
2022/06/05 12:16:36;;;;;;;2.97;2.67;;;24.90;78.80;;;;;;5029762;28;20435;-44
2022/06/05 12:19:20;;;;;;;5.90;2.70;;;24.90;76.70;;;;;;5030063;28;20489;-44
2022/06/05 12:22:05;;;;;;;3.80;2.57;;;24.90;79.40;;;;;;5028997;28;20490;-44
2022/06/05 12:25:02;;;;;;;2.93;2.60;;;25.20;79.50;;;;;;5029933;28;20428;-44
2022/06/05 12:27:45;;;;;;;2.70;2.30;;;25.10;79.00;;;;;;5029562;28;20570;-44
2022/06/05 12:30:21;;;;;;;2.53;1.77;;;25.00;75.30;;;;;;5027918;28;20436;-45
2022/06/05 12:33:04;;;;;;;2.60;2.20;;;24.90;77.90;;;;;;5029626;28;20423;-44
2022/06/05 12:35:36;;;;;;;4.73;1.77;;;24.60;74.30;;;;;;5029971;28;20432;-44
2022/06/05 12:38:54;;;;;;;5.00;2.67;;;24.50;73.10;;;;;;5029747;28;20440;-44
2022/06/05 12:41:23;;;;;;;2.27;1.80;;;24.40;73.30;;;;;;4986952;28;20532;-46
2022/06/05 12:44:00;;;;;;;2.30;2.00;;;24.60;74.70;;;;;;4988102;28;20489;-43
2022/06/05 12:46:38;;;;;;;2.50;1.93;;;25.00;74.70;;;;;;5011168;28;20514;-44
2022/06/05 12:49:33;;;;;;;2.73;2.23;;;25.20;72.50;;;;;;5029946;28;20424;-44
2022/06/05 12:52:30;;;;;;;3.80;2.30;;;25.50;70.00;;;;;;5019949;28;20869;-44
2022/06/05 12:55:16;;;;;;;2.80;2.13;;;25.90;71.90;;;;;;5022017;28;20518;-44
2022/06/05 12:57:44;;;;;;;2.73;2.07;;;26.20;69.90;;;;;;5026403;28;20443;-46
2022/06/05 13:00:29;;;;;;;4.23;2.30;;;26.40;68.90;;;;;;5033056;28;21139;-44
2022/06/05 13:03:01;;;;;;;3.83;2.83;;;26.80;66.00;;;;;;5031449;28;20491;-45
2022/06/05 13:05:49;;;;;;;4.13;2.37;;;27.20;64.10;;;;;;5033511;28;20444;-44
2022/06/05 13:08:27;;;;;;;2.70;2.40;;;27.30;62.80;;;;;;5033702;28;20428;-44
2022/06/05 13:11:27;;;;;;;5.10;2.10;;;27.30;62.50;;;;;;5032413;28;20460;-46
2022/06/05 13:14:07;;;;;;;1.80;1.70;;;27.60;60.80;;;;;;5025574;28;20448;-44
2022/06/05 13:16:40;;;;;;;5.07;2.07;;;27.70;60.20;;;;;;5032852;28;20432;-43
2022/06/05 13:19:29;;;;;;;3.77;2.10;;;27.30;61.10;;;;;;5033312;28;20432;-45
2022/06/05 13:22:09;;;;;;;2.60;2.40;;;27.20;62.80;;;;;;5032118;28;20463;-44
2022/06/05 13:25:08;;;;;;;3.30;2.80;;;27.00;63.80;;;;;;5031563;28;20506;-44
2022/06/05 13:27:58;;;;;;;4.87;1.70;;;26.90;64.00;;;;;;5032643;28;20967;-44
2022/06/05 13:30:27;;;;;;;2.20;2.00;;;26.70;64.20;;;;;;5032445;28;20459;-44
2022/06/05 13:33:08;;;;;;;2.73;1.90;;;27.00;64.20;;;;;;5032517;28;20456;-44